Airfield :
LOGIN :

Register | Disclaimer

   EN    FR    IT 

 










Legend :    VFR   Marginal VFR   IFR   Intensive IFR   Very Intensive IFR
Visi :
Ceiling :
>= 8 km
>= 3000ft
5 to 8 km
1000 to 3000 ft
1500m to 5 km
500 to 1000 ft
800 to 1500m
200 to 500 ft
< 800m
< 200 ft
Symbols :   Thunderstorms  Fog  Heavy snow  Heavy precipitations  Wind > 20 kt
SIGMETs :     Misc.  Thunderstorms  Icing  Turbulence  Mountain Waves  Volcanic Ashes






- Airport Elevation : 194 ft
- IATA code : ANE


LFJR - Angers Marcé

CURRENT METAR :
  • 270830Z AUTO 24020G30KT 9999 BKN010 OVC019 12/11 Q0997

EXPIRED METARs :
  • 270800Z AUTO 23015KT 9999 3800 OVC006 11/11 Q0997
  • 270730Z AUTO 21014KT 190V250 7000 OVC006 10/10 Q0997
  • 270700Z AUTO 21015KT 9999 OVC007 09/09 Q0997
  • 270630Z AUTO 19014KT 160V220 9000 BKN007 BKN011 OVC016 08/08 Q0998
  • 270600Z AUTO 18014KT 150V210 9999 BKN008/// OVC012/// ///CB 08/07 Q0999

Expired Forecast.



MET'MAP, your aeronautical weather chart ! - Copyright ORBIFLY December 2007 - Disclaimer

ORBIFLY MET'MAP TEAM :

Programming & Development : Alexandra Zaïnal
Concept & original design : Baudouin d'Aumeries
Assistance for programming : Marc-Olivier Méhu
Technical & hardware support : Manuel Goepfert

Contact : metmap@orbifly.com




SOURCES & CREDITS :

   NOAA